Time;durP1;ratioP1;P1;durP2;ratioP2;P2;SDS_P1;SDS_P2;PMS_P1;PMS_P2;Temp;Humidity;BMP_temperature;BMP_pressure;BME280_temperature;BME280_humidity;BME280_pressure;Samples;Min_cycle;Max_cycle;Signal;HPM_P1;HPM_P2
2022/01/24 00:01:04;;;;;;;;;56.50;47.75;;;;;;;;5078978;28;13760;-68
2022/01/24 00:03:29;;;;;;;;;59.25;51.00;;;;;;;;5078800;28;12296;-68
2022/01/24 00:05:54;;;;;;;;;60.75;51.50;;;;;;;;5078666;28;14016;-67
2022/01/24 00:08:21;;;;;;;;;57.25;48.75;;;;;;;;5077195;28;14227;-70
2022/01/24 00:10:47;;;;;;;;;61.50;52.00;;;;;;;;5078117;28;13804;-68
2022/01/24 00:16:14;;;;;;;;;67.25;53.50;;;;;;;;5046790;28;13560;-66
2022/01/24 00:26:51;;;;;;;;;64.50;51.75;;;;;;;;5081816;28;12477;-66
2022/01/24 00:29:19;;;;;;;;;67.00;54.50;;;;;;;;5082724;28;12475;-67
2022/01/24 00:31:45;;;;;;;;;63.25;50.25;;;;;;;;5082002;28;11850;-68
2022/01/24 00:34:10;;;;;;;;;63.75;53.75;;;;;;;;5082272;28;11613;-66
2022/01/24 00:36:37;;;;;;;;;61.50;51.75;;;;;;;;5081735;28;9692;-67
2022/01/24 00:39:03;;;;;;;;;62.75;51.25;;;;;;;;5097998;28;13114;-66
2022/01/24 00:41:30;;;;;;;;;60.00;51.25;;;;;;;;5081924;28;10693;-67
2022/01/24 00:46:35;;;;;;;;;63.75;50.75;;;;;;;;5081948;28;9395;-66
2022/01/24 00:56:54;;;;;;;;;9.00;9.00;;;;;;;;5082003;28;11634;-66
2022/01/24 00:59:19;;;;;;;;;60.75;49.25;;;;;;;;5081275;28;23757;-66
2022/01/24 01:01:44;;;;;;;;;58.00;47.75;;;;;;;;5081106;28;24757;-66
2022/01/24 01:04:09;;;;;;;;;62.25;51.50;;;;;;;;5081330;28;12431;-66
2022/01/24 01:06:38;;;;;;;;;62.50;51.50;;;;;;;;5080978;28;13829;-67
2022/01/24 01:20:07;;;;;;;;;58.25;48.25;;;;;;;;5082088;28;11654;-67
2022/01/24 01:22:32;;;;;;;;;58.75;47.50;;;;;;;;5081628;28;10405;-66
2022/01/24 01:24:58;;;;;;;;;59.50;47.25;;;;;;;;5081594;28;10609;-67
2022/01/24 01:27:25;;;;;;;;;60.75;48.25;;;;;;;;5081328;28;11605;-66
2022/01/24 01:37:53;;;;;;;;;63.25;52.25;;;;;;;;5081100;28;11660;-66
2022/01/24 01:56:41;;;;;;;;;50.75;44.50;;;;;;;;5079938;28;11646;-67
2022/01/24 01:59:06;;;;;;;;;67.00;48.50;;;;;;;;5080631;28;11854;-67
2022/01/24 02:01:31;;;;;;;;;62.50;52.25;;;;;;;;5081253;28;12673;-66
2022/01/24 02:03:57;;;;;;;;;66.75;50.75;;;;;;;;5080839;28;12690;-66
2022/01/24 02:06:23;;;;;;;;;64.75;50.00;;;;;;;;5080649;28;10731;-67
2022/01/24 02:08:48;;;;;;;;;66.50;53.25;;;;;;;;5080716;28;11904;-66
2022/01/24 02:11:15;;;;;;;;;63.25;51.50;;;;;;;;5080635;28;11761;-66
2022/01/24 02:13:40;;;;;;;;;67.75;52.25;;;;;;;;5079778;28;12122;-66
2022/01/24 02:16:15;;;;;;;;;62.75;48.50;;;;;;;;5080155;28;11668;-67
2022/01/24 02:23:51;;;;;;;;;64.75;54.50;;;;;;;;5080384;28;12450;-65
2022/01/24 02:26:20;;;;;;;;;72.50;57.00;;;;;;;;5080230;28;13752;-66
2022/01/24 02:33:46;;;;;;;;;62.50;53.75;;;;;;;;5080057;28;8758;-67
2022/01/24 02:36:11;;;;;;;;;66.25;52.25;;;;;;;;5080906;28;11676;-66
2022/01/24 02:49:19;;;;;;;;;61.25;52.00;;;;;;;;5079978;28;8895;-67
2022/01/24 02:51:47;;;;;;;;;31.25;23.25;;;;;;;;5079727;28;12438;-65
2022/01/24 02:54:16;;;;;;;;;63.00;53.25;;;;;;;;5080172;28;14905;-66
2022/01/24 02:56:41;;;;;;;;;62.25;51.25;;;;;;;;5079897;28;12771;-67
2022/01/24 02:59:07;;;;;;;;;68.00;55.50;;;;;;;;5061698;28;12314;-66
2022/01/24 03:01:32;;;;;;;;;61.25;50.25;;;;;;;;5079876;28;12100;-67
2022/01/24 03:03:57;;;;;;;;;57.25;46.75;;;;;;;;5061859;28;11778;-66
2022/01/24 03:06:22;;;;;;;;;66.25;49.00;;;;;;;;5079714;28;14248;-67
2022/01/24 03:08:48;;;;;;;;;69.50;58.00;;;;;;;;5079634;28;13521;-67
2022/01/24 03:11:15;;;;;;;;;69.50;57.50;;;;;;;;5079733;28;11601;-67
2022/01/24 03:13:40;;;;;;;;;72.25;57.00;;;;;;;;5079275;28;9076;-66
2022/01/24 03:16:07;;;;;;;;;68.00;56.00;;;;;;;;5078768;28;13533;-66
2022/01/24 03:18:33;;;;;;;;;67.50;52.75;;;;;;;;5079391;28;13004;-66
2022/01/24 03:20:58;;;;;;;;;63.25;54.25;;;;;;;;5094546;28;14060;-67
2022/01/24 03:23:24;;;;;;;;;65.25;54.50;;;;;;;;5079249;28;10728;-66
2022/01/24 03:25:49;;;;;;;;;65.75;54.50;;;;;;;;5079331;28;12110;-66
2022/01/24 03:28:15;;;;;;;;;73.50;55.75;;;;;;;;5079128;28;8816;-66
2022/01/24 03:30:40;;;;;;;;;66.50;53.50;;;;;;;;5078972;28;14595;-66
2022/01/24 03:33:06;;;;;;;;;74.50;58.50;;;;;;;;5078927;28;14030;-66
2022/01/24 03:35:32;;;;;;;;;68.25;55.50;;;;;;;;5079831;28;10359;-66
2022/01/24 03:37:58;;;;;;;;;66.75;54.00;;;;;;;;5079277;28;12464;-66
2022/01/24 03:40:23;;;;;;;;;54.75;42.25;;;;;;;;5079286;28;11573;-67
2022/01/24 03:42:49;;;;;;;;;69.25;57.00;;;;;;;;5078329;28;14267;-66
2022/01/24 08:54:17;;;;;;;;;60.50;50.50;;;;;;;;5098717;27;1450049;-72
2022/01/24 08:56:45;;;;;;;;;57.00;49.00;;;;;;;;5136311;27;22597;-72
2022/01/24 08:59:11;;;;;;;;;64.50;52.50;;;;;;;;5136023;27;13647;-70
2022/01/24 09:01:36;;;;;;;;;60.25;47.50;;;;;;;;5137249;27;13784;-72
2022/01/24 09:04:01;;;;;;;;;56.50;47.00;;;;;;;;5137016;27;11397;-73
2022/01/24 09:06:28;;;;;;;;;66.00;47.50;;;;;;;;5136916;27;13236;-73
2022/01/24 09:08:59;;;;;;;;;61.50;50.25;;;;;;;;5135786;27;13315;-72
2022/01/24 09:11:29;;;;;;;;;65.25;54.00;;;;;;;;5133430;27;12593;-71
2022/01/24 09:13:56;;;;;;;;;59.00;48.75;;;;;;;;5135747;27;11527;-71
2022/01/24 09:16:21;;;;;;;;;58.00;49.00;;;;;;;;5135837;27;14448;-72
2022/01/24 09:18:48;;;;;;;;;64.00;49.25;;;;;;;;5133591;27;11425;-72
2022/01/24 09:21:13;;;;;;;;;60.00;46.50;;;;;;;;5135904;27;15026;-72
2022/01/24 09:23:38;;;;;;;;;65.25;53.00;;;;;;;;5132483;27;11595;-72
2022/01/24 09:26:04;;;;;;;;;65.25;54.75;;;;;;;;5132390;27;12477;-72
2022/01/24 09:28:29;;;;;;;;;62.00;48.75;;;;;;;;5135367;27;9541;-72
2022/01/24 09:30:55;;;;;;;;;63.25;51.00;;;;;;;;5135526;27;11582;-74
2022/01/24 09:33:21;;;;;;;;;54.75;46.75;;;;;;;;5134418;27;12769;-71
2022/01/24 09:35:46;;;;;;;;;64.50;49.00;;;;;;;;5134050;27;15778;-72
2022/01/24 09:38:12;;;;;;;;;65.75;50.50;;;;;;;;5136952;27;13310;-74
2022/01/24 09:40:38;;;;;;;;;62.25;50.75;;;;;;;;5130081;27;12719;-73
2022/01/24 09:43:04;;;;;;;;;61.25;51.00;;;;;;;;5136365;27;11657;-71
2022/01/24 09:45:29;;;;;;;;;63.75;52.25;;;;;;;;5136486;27;11855;-70
2022/01/24 09:47:56;;;;;;;;;60.25;52.00;;;;;;;;5124861;27;11567;-72
2022/01/24 09:50:22;;;;;;;;;46.50;43.00;;;;;;;;5115987;28;11505;-73
2022/01/24 09:52:48;;;;;;;;;61.00;49.50;;;;;;;;5122656;27;12520;-70
2022/01/24 09:55:14;;;;;;;;;59.25;51.25;;;;;;;;5136103;27;13555;-71
2022/01/24 09:57:41;;;;;;;;;65.00;51.50;;;;;;;;5131518;27;13331;-70
2022/01/24 10:00:08;;;;;;;;;58.75;47.25;;;;;;;;5130163;27;13300;-72
2022/01/24 10:02:33;;;;;;;;;63.50;51.25;;;;;;;;5125101;27;13371;-74
2022/01/24 10:05:35;;;;;;;;;62.00;51.50;;;;;;;;5118810;27;12414;-72
2022/01/24 10:08:01;;;;;;;;;65.50;51.75;;;;;;;;5027586;28;12167;-70
2022/01/24 10:10:26;;;;;;;;;66.25;50.50;;;;;;;;5095340;28;11595;-71
2022/01/24 10:18:04;;;;;;;;;63.50;52.50;;;;;;;;5117251;28;11452;-71
2022/01/24 10:20:31;;;;;;;;;65.00;50.50;;;;;;;;5116617;28;10700;-71
2022/01/24 10:23:16;;;;;;;;;70.75;56.00;;;;;;;;5117457;28;10431;-73
2022/01/24 10:25:50;;;;;;;;;63.25;51.25;;;;;;;;5117306;28;13317;-71
2022/01/24 10:28:45;;;;;;;;;68.25;54.50;;;;;;;;5116132;28;14952;-71
2022/01/24 10:31:24;;;;;;;;;69.00;55.00;;;;;;;;5089810;28;11765;-70
2022/01/24 10:34:33;;;;;;;;;67.50;56.25;;;;;;;;5114990;28;11812;-70
2022/01/24 10:36:59;;;;;;;;;21.75;15.25;;;;;;;;5113523;28;11774;-70
2022/01/24 10:40:09;;;;;;;;;71.00;56.50;;;;;;;;5116770;28;12797;-70
2022/01/24 10:44:49;;;;;;;;;79.00;57.25;;;;;;;;5120084;28;14712;-68
2022/01/24 10:47:22;;;;;;;;;70.00;56.25;;;;;;;;5120477;28;12213;-68
2022/01/24 10:49:47;;;;;;;;;77.50;62.00;;;;;;;;5120103;28;8861;-67
2022/01/24 10:52:33;;;;;;;;;75.00;59.00;;;;;;;;5115318;28;12205;-70
2022/01/24 10:55:13;;;;;;;;;74.25;60.00;;;;;;;;5094013;28;13685;-76
2022/01/24 10:57:40;;;;;;;;;72.75;58.00;;;;;;;;5082343;28;11619;-71
2022/01/24 11:00:05;;;;;;;;;78.25;58.00;;;;;;;;5100770;28;10433;-73
2022/01/24 11:02:40;;;;;;;;;66.25;52.75;;;;;;;;5101140;28;8825;-72
2022/01/24 11:05:25;;;;;;;;;74.00;57.50;;;;;;;;5110536;28;13545;-72
2022/01/24 11:07:52;;;;;;;;;72.00;56.50;;;;;;;;5121151;28;13406;-71
2022/01/24 11:10:17;;;;;;;;;69.50;56.00;;;;;;;;5121077;28;9103;-70
2022/01/24 11:12:43;;;;;;;;;77.75;58.00;;;;;;;;5121640;28;13950;-71
2022/01/24 11:15:10;;;;;;;;;71.50;56.00;;;;;;;;5120934;27;12370;-72
2022/01/24 11:17:35;;;;;;;;;70.75;58.00;;;;;;;;5101669;28;12605;-73
2022/01/24 11:20:02;;;;;;;;;72.50;56.25;;;;;;;;5120608;28;11550;-71
2022/01/24 11:22:30;;;;;;;;;67.00;55.33;;;;;;;;5097434;28;13305;-76
2022/01/24 11:25:03;;;;;;;;;67.00;52.33;;;;;;;;5100093;28;12338;-73
2022/01/24 11:27:30;;;;;;;;;27.75;27.25;;;;;;;;5100819;28;8771;-68
2022/01/24 11:30:12;;;;;;;;;37.00;31.75;;;;;;;;5163181;27;1415358;-63
2022/01/24 11:33:22;;;;;;;;;59.00;47.67;;;;;;;;5217303;27;78873;-70
2022/01/24 11:35:54;;;;;;;;;63.00;50.33;;;;;;;;5200113;27;22595;-78
2022/01/24 11:38:31;;;;;;;;;59.50;50.00;;;;;;;;5122085;27;13371;-78
2022/01/24 11:41:05;;;;;;;;;64.00;52.33;;;;;;;;5113297;27;13846;-77
2022/01/24 11:43:33;;;;;;;;;63.50;49.50;;;;;;;;5137170;27;13339;-78
2022/01/24 11:46:04;;;;;;;;;60.25;48.00;;;;;;;;5137063;27;12813;-79
2022/01/24 11:48:32;;;;;;;;;60.50;50.00;;;;;;;;5118517;27;13840;-78
2022/01/24 11:51:06;;;;;;;;;61.33;50.00;;;;;;;;5136284;27;11990;-78
2022/01/24 11:53:33;;;;;;;;;55.00;45.00;;;;;;;;5136652;27;11629;-79
2022/01/24 11:56:19;;;;;;;;;61.67;50.33;;;;;;;;5136929;27;12680;-80
2022/01/24 11:58:45;;;;;;;;;67.00;53.67;;;;;;;;5136004;27;13308;-76
2022/01/24 12:01:14;;;;;;;;;56.67;47.33;;;;;;;;5136330;27;11987;-73
2022/01/24 12:03:48;;;;;;;;;65.67;52.00;;;;;;;;5135095;27;13820;-74
2022/01/24 12:06:19;;;;;;;;;69.00;53.33;;;;;;;;5123694;27;13372;-83
2022/01/24 12:08:46;;;;;;;;;63.67;50.67;;;;;;;;5105432;27;13518;-81
2022/01/24 12:11:15;;;;;;;;;67.00;53.33;;;;;;;;5125379;27;11700;-79
2022/01/24 12:13:44;;;;;;;;;60.67;51.00;;;;;;;;5120263;27;11654;-76
2022/01/24 12:16:11;;;;;;;;;67.33;54.67;;;;;;;;5125093;27;11670;-77
2022/01/24 12:18:36;;;;;;;;;68.67;52.67;;;;;;;;5107412;27;14705;-79
2022/01/24 12:21:04;;;;;;;;;67.00;53.67;;;;;;;;5103685;27;12134;-79
2022/01/24 12:23:36;;;;;;;;;68.33;54.00;;;;;;;;5104860;27;12781;-78
2022/01/24 12:26:05;;;;;;;;;74.33;58.33;;;;;;;;5123939;27;11460;-84
2022/01/24 12:28:34;;;;;;;;;70.00;55.33;;;;;;;;5106897;27;13782;-74
2022/01/24 12:31:00;;;;;;;;;73.33;57.00;;;;;;;;5123940;27;10469;-75
2022/01/24 12:33:31;;;;;;;;;73.33;58.00;;;;;;;;5125593;27;12547;-73
2022/01/24 12:35:57;;;;;;;;;71.50;56.00;;;;;;;;5121003;27;8918;-70
2022/01/24 12:38:22;;;;;;;;;58.00;47.00;;;;;;;;5115439;28;10351;-71
2022/01/24 12:40:48;;;;;;;;;77.50;60.50;;;;;;;;5115590;28;12327;-73
2022/01/24 12:43:28;;;;;;;;;78.25;59.00;;;;;;;;5109344;28;13480;-71
2022/01/24 12:48:37;;;;;;;;;85.00;69.25;;;;;;;;5110950;28;11435;-74
2022/01/24 12:51:04;;;;;;;;;85.00;71.50;;;;;;;;5121405;28;13707;-72
2022/01/24 12:53:36;;;;;;;;;83.25;65.00;;;;;;;;5122078;28;10862;-77
2022/01/24 12:56:02;;;;;;;;;78.50;61.25;;;;;;;;5102872;28;14609;-71
2022/01/24 12:58:36;;;;;;;;;77.25;61.75;;;;;;;;5120783;28;13383;-74
2022/01/24 13:01:01;;;;;;;;;76.25;60.25;;;;;;;;5119189;28;12642;-77
2022/01/24 13:03:45;;;;;;;;;81.75;65.25;;;;;;;;5121493;28;10427;-73
2022/01/24 13:06:14;;;;;;;;;80.25;63.75;;;;;;;;5102924;28;13469;-73
2022/01/24 13:08:50;;;;;;;;;83.00;67.50;;;;;;;;5121560;28;11671;-81
2022/01/24 13:11:15;;;;;;;;;78.75;62.50;;;;;;;;5121359;28;11439;-72
2022/01/24 13:13:56;;;;;;;;;82.75;69.25;;;;;;;;5121469;28;12180;-73
2022/01/24 13:22:14;;;;;;;;;83.75;63.50;;;;;;;;5114418;28;11456;-73
2022/01/24 13:24:40;;;;;;;;;80.75;62.50;;;;;;;;5111559;28;9621;-72
2022/01/24 13:27:05;;;;;;;;;80.00;63.25;;;;;;;;5089716;28;10371;-71
2022/01/24 13:29:38;;;;;;;;;67.25;54.00;;;;;;;;5110837;28;11812;-73
2022/01/24 13:32:03;;;;;;;;;81.75;64.50;;;;;;;;5110318;28;13487;-68
2022/01/24 13:34:29;;;;;;;;;85.50;67.50;;;;;;;;5109198;28;13293;-67
2022/01/24 13:37:04;;;;;;;;;80.00;63.25;;;;;;;;5109471;28;10363;-68
2022/01/24 13:39:29;;;;;;;;;79.50;63.75;;;;;;;;5108953;28;11471;-69
2022/01/24 13:41:55;;;;;;;;;82.50;67.50;;;;;;;;5109049;28;12267;-68
2022/01/24 13:44:20;;;;;;;;;76.75;58.00;;;;;;;;5110256;28;13574;-68
2022/01/24 13:46:46;;;;;;;;;76.00;61.00;;;;;;;;5108229;28;14600;-68
2022/01/24 13:49:18;;;;;;;;;75.50;61.00;;;;;;;;5109109;28;11606;-67
2022/01/24 13:51:49;;;;;;;;;78.25;62.25;;;;;;;;5110461;28;8949;-68
2022/01/24 13:54:19;;;;;;;;;68.75;55.00;;;;;;;;5109961;28;11634;-69
2022/01/24 13:56:45;;;;;;;;;79.75;62.25;;;;;;;;5108673;28;13470;-69
2022/01/24 13:59:13;;;;;;;;;75.50;60.75;;;;;;;;5092104;28;15441;-68
2022/01/24 14:01:59;;;;;;;;;77.50;60.25;;;;;;;;5110571;28;10461;-68
2022/01/24 14:04:27;;;;;;;;;74.50;58.50;;;;;;;;5108277;28;10711;-69
2022/01/24 14:07:04;;;;;;;;;79.25;60.25;;;;;;;;5109785;28;12467;-69
2022/01/24 14:09:32;;;;;;;;;76.50;61.00;;;;;;;;5108358;28;12290;-69
2022/01/24 14:11:57;;;;;;;;;76.25;60.50;;;;;;;;5109949;28;11927;-69
2022/01/24 14:14:26;;;;;;;;;77.50;61.00;;;;;;;;5108363;28;10358;-69
2022/01/24 14:19:16;;;;;;;;;74.50;58.50;;;;;;;;5109750;28;11336;-69
2022/01/24 14:21:59;;;;;;;;;74.50;59.00;;;;;;;;5108289;28;11829;-69
2022/01/24 14:24:40;;;;;;;;;72.00;58.00;;;;;;;;5106028;28;8775;-71
2022/01/24 14:27:05;;;;;;;;;74.25;58.50;;;;;;;;5100463;28;10605;-69
2022/01/24 14:29:33;;;;;;;;;70.50;54.00;;;;;;;;5080954;28;13914;-70
2022/01/24 14:32:09;;;;;;;;;77.25;58.50;;;;;;;;5092147;28;11815;-70
2022/01/24 14:34:35;;;;;;;;;71.75;56.00;;;;;;;;5097113;28;13715;-69
2022/01/24 14:37:05;;;;;;;;;69.75;56.25;;;;;;;;5110483;28;11369;-69
2022/01/24 14:39:31;;;;;;;;;72.50;57.50;;;;;;;;5108323;28;14503;-69
2022/01/24 14:41:57;;;;;;;;;71.25;55.75;;;;;;;;5108961;28;13683;-69
2022/01/24 14:47:06;;;;;;;;;74.25;58.50;;;;;;;;5108420;28;11386;-70
2022/01/24 14:49:33;;;;;;;;;69.00;56.67;;;;;;;;5107467;28;8815;-74
2022/01/24 14:52:02;;;;;;;;;75.00;59.50;;;;;;;;5109080;28;13664;-71
2022/01/24 14:54:28;;;;;;;;;105.75;91.50;;;;;;;;5108401;28;14392;-73
2022/01/24 14:56:55;;;;;;;;;93.50;80.50;;;;;;;;5106637;28;23893;-72
2022/01/24 14:59:22;;;;;;;;;84.75;66.25;;;;;;;;5106509;28;23359;-73
2022/01/24 15:01:47;;;;;;;;;81.75;63.00;;;;;;;;5109065;28;14838;-81
2022/01/24 15:04:13;;;;;;;;;78.50;60.25;;;;;;;;5107605;28;11940;-79
2022/01/24 15:06:39;;;;;;;;;73.00;57.00;;;;;;;;5099177;28;13761;-80
2022/01/24 15:09:06;;;;;;;;;78.25;61.00;;;;;;;;5098058;28;12311;-80
2022/01/24 16:06:16;;;;;;;;;75.25;59.50;;;;;;;;5212982;27;78536;-67
2022/01/24 16:08:41;;;;;;;;;72.00;56.75;;;;;;;;5175769;27;22618;-67
2022/01/24 16:11:07;;;;;;;;;74.00;57.25;;;;;;;;5178100;27;12578;-67
2022/01/24 16:13:33;;;;;;;;;75.75;58.25;;;;;;;;5178094;27;10351;-67
2022/01/24 16:15:58;;;;;;;;;67.75;54.00;;;;;;;;5177393;27;10697;-67
2022/01/24 16:18:24;;;;;;;;;74.00;57.50;;;;;;;;5177535;27;14448;-67
2022/01/24 16:23:27;;;;;;;;;73.00;58.00;;;;;;;;5177687;27;11477;-75
2022/01/24 16:25:54;;;;;;;;;73.00;58.00;;;;;;;;5159149;27;11919;-70
2022/01/24 16:28:23;;;;;;;;;74.50;60.50;;;;;;;;5176543;27;8910;-72
2022/01/24 16:30:49;;;;;;;;;79.25;61.00;;;;;;;;5177334;27;13623;-71
2022/01/24 16:33:18;;;;;;;;;79.50;61.50;;;;;;;;5176595;27;11955;-74
2022/01/24 16:35:43;;;;;;;;;75.25;59.00;;;;;;;;5158452;27;8979;-73
2022/01/24 16:38:11;;;;;;;;;73.75;60.00;;;;;;;;5158768;27;12518;-77
2022/01/24 16:40:53;;;;;;;;;71.25;58.00;;;;;;;;5195455;27;10914;-72
2022/01/24 16:43:27;;;;;;;;;84.25;67.25;;;;;;;;5198267;27;10439;-72
2022/01/24 16:48:37;;;;;;;;;81.50;63.75;;;;;;;;5190532;27;10624;-72
2022/01/24 16:51:05;;;;;;;;;79.25;62.50;;;;;;;;5188005;27;8792;-74
2022/01/24 16:53:30;;;;;;;;;78.50;62.50;;;;;;;;5182671;27;13747;-74
2022/01/24 16:55:58;;;;;;;;;78.75;63.25;;;;;;;;5173905;27;9571;-74
2022/01/24 16:58:24;;;;;;;;;78.50;62.75;;;;;;;;5170987;27;12458;-74
2022/01/24 17:00:50;;;;;;;;;84.25;65.50;;;;;;;;5184124;27;10071;-75
2022/01/24 17:03:15;;;;;;;;;82.25;67.00;;;;;;;;5186060;27;13229;-76
2022/01/24 17:05:41;;;;;;;;;81.25;62.00;;;;;;;;5174158;27;14640;-73
2022/01/24 17:08:08;;;;;;;;;78.50;61.75;;;;;;;;5187583;27;9661;-77
2022/01/24 17:10:34;;;;;;;;;79.00;62.75;;;;;;;;5186352;27;13291;-77
2022/01/24 17:13:03;;;;;;;;;75.25;58.75;;;;;;;;5186662;27;10481;-75
2022/01/24 17:15:28;;;;;;;;;89.00;72.50;;;;;;;;5185445;27;12736;-76
2022/01/24 17:17:54;;;;;;;;;77.75;61.25;;;;;;;;5161912;27;15369;-80
2022/01/24 17:20:19;;;;;;;;;83.00;63.50;;;;;;;;5163564;27;13442;-79
2022/01/24 17:22:44;;;;;;;;;78.75;63.75;;;;;;;;5175297;27;13389;-87
2022/01/24 17:25:10;;;;;;;;;81.75;63.25;;;;;;;;5171891;27;13794;-78
2022/01/24 17:27:35;;;;;;;;;80.00;65.00;;;;;;;;5170840;27;12211;-78
2022/01/24 17:30:01;;;;;;;;;82.75;63.25;;;;;;;;5173337;27;11396;-80
2022/01/24 17:32:28;;;;;;;;;80.00;63.25;;;;;;;;5163235;27;11866;-84
2022/01/24 17:34:53;;;;;;;;;80.50;64.00;;;;;;;;5184162;27;8796;-79
2022/01/24 17:37:19;;;;;;;;;84.75;65.25;;;;;;;;5183870;27;10355;-79
2022/01/24 17:39:44;;;;;;;;;85.00;66.25;;;;;;;;5183919;27;11448;-77
2022/01/24 17:42:09;;;;;;;;;86.50;68.25;;;;;;;;5184089;27;10809;-86
2022/01/24 17:44:35;;;;;;;;;77.75;62.25;;;;;;;;5183576;27;11683;-79
2022/01/24 17:47:01;;;;;;;;;83.25;64.25;;;;;;;;5184449;27;13524;-79
2022/01/24 17:49:26;;;;;;;;;86.25;65.75;;;;;;;;5184104;27;11360;-83
2022/01/24 17:54:36;;;;;;;;;80.25;63.25;;;;;;;;5216860;27;77746;-77
2022/01/24 17:57:01;;;;;;;;;82.50;63.50;;;;;;;;5197840;27;22699;-78
2022/01/24 17:59:27;;;;;;;;;77.00;60.75;;;;;;;;5199098;27;11896;-80
2022/01/24 18:01:52;;;;;;;;;80.25;62.50;;;;;;;;5198917;27;13252;-79
2022/01/24 18:04:17;;;;;;;;;82.00;65.25;;;;;;;;5179985;27;14599;-84
2022/01/24 18:06:45;;;;;;;;;87.00;67.75;;;;;;;;5180419;27;12809;-80
2022/01/24 18:09:11;;;;;;;;;81.75;64.75;;;;;;;;5198206;27;10702;-81
2022/01/24 18:11:36;;;;;;;;;86.00;65.25;;;;;;;;5198085;27;12626;-80
2022/01/24 18:14:01;;;;;;;;;78.25;62.00;;;;;;;;5199222;27;10347;-77
2022/01/24 18:16:26;;;;;;;;;79.25;63.75;;;;;;;;5200195;27;13253;-88
2022/01/24 18:18:52;;;;;;;;;74.75;59.25;;;;;;;;5199576;27;11427;-85
2022/01/24 18:21:19;;;;;;;;;64.33;54.33;;;;;;;;5180659;27;11794;-82
2022/01/24 18:23:45;;;;;;;;;35.33;29.67;;;;;;;;5193289;27;12669;-81
2022/01/24 18:26:10;;;;;;;;;54.33;45.00;;;;;;;;5189744;27;13480;-84
2022/01/24 18:28:36;;;;;;;;;53.33;44.33;;;;;;;;5159120;27;16570;-82
2022/01/24 18:31:01;;;;;;;;;43.33;34.33;;;;;;;;5178251;27;11981;-78
2022/01/24 18:33:27;;;;;;;;;49.67;39.67;;;;;;;;5159107;27;9617;-78
2022/01/24 18:35:53;;;;;;;;;46.67;42.67;;;;;;;;5177896;27;11788;-78
2022/01/24 18:38:19;;;;;;;;;50.67;44.00;;;;;;;;5182065;27;9605;-76
2022/01/24 18:40:44;;;;;;;;;42.33;37.00;;;;;;;;5177376;27;14823;-83
2022/01/24 18:43:10;;;;;;;;;46.33;43.00;;;;;;;;5177284;27;12738;-82
2022/01/24 18:45:35;;;;;;;;;42.33;40.00;;;;;;;;5159036;27;12132;-75
2022/01/24 18:48:01;;;;;;;;;40.33;35.00;;;;;;;;5178132;27;8893;-75
2022/01/24 18:50:26;;;;;;;;;44.67;40.33;;;;;;;;5179988;27;11107;-74
2022/01/24 18:52:54;;;;;;;;;37.00;37.00;;;;;;;;5186296;27;13282;-74
2022/01/24 18:55:23;;;;;;;;;72.67;56.33;;;;;;;;5177305;27;13494;-74
2022/01/24 18:57:49;;;;;;;;;67.67;54.33;;;;;;;;5186774;27;13280;-74
2022/01/24 19:00:16;;;;;;;;;43.33;36.00;;;;;;;;5197286;27;12006;-73
2022/01/24 19:02:42;;;;;;;;;34.33;30.33;;;;;;;;5197750;27;13423;-74
2022/01/24 19:05:07;;;;;;;;;34.00;28.33;;;;;;;;5189435;27;13675;-75
2022/01/24 19:07:32;;;;;;;;;35.33;24.33;;;;;;;;5179750;27;11423;-73
2022/01/24 19:09:57;;;;;;;;;39.00;36.00;;;;;;;;5163979;27;11683;-76
2022/01/24 19:12:23;;;;;;;;;40.33;35.67;;;;;;;;5163385;27;12729;-85
2022/01/24 19:14:48;;;;;;;;;41.00;33.67;;;;;;;;5163583;27;13266;-79
2022/01/24 19:17:25;;;;;;;;;34.00;30.33;;;;;;;;5163631;27;10580;-76
2022/01/24 19:20:02;;;;;;;;;42.00;35.33;;;;;;;;5162901;27;13516;-81
2022/01/24 19:25:13;;;;;;;;;37.67;32.67;;;;;;;;5162516;27;13412;-74
2022/01/24 19:29:01;;;;;;;;;43.67;38.00;;;;;;;;5101468;27;3096361;-76
2022/01/24 19:31:26;;;;;;;;;40.00;36.67;;;;;;;;5199253;27;22480;-75
2022/01/24 19:33:51;;;;;;;;;47.67;44.00;;;;;;;;5199291;27;11687;-77
2022/01/24 19:36:17;;;;;;;;;54.33;45.00;;;;;;;;5199101;27;13582;-74
2022/01/24 19:38:43;;;;;;;;;55.00;44.67;;;;;;;;5198936;27;12517;-74
2022/01/24 19:41:09;;;;;;;;;45.67;31.67;;;;;;;;5198464;27;11740;-74
2022/01/24 19:43:35;;;;;;;;;53.00;46.67;;;;;;;;5199010;27;12180;-74
2022/01/24 19:46:00;;;;;;;;;57.33;45.33;;;;;;;;5196953;27;12428;-75
2022/01/24 19:48:26;;;;;;;;;52.67;45.67;;;;;;;;5198573;27;11389;-76
2022/01/24 19:50:53;;;;;;;;;54.33;43.00;;;;;;;;5199178;27;11680;-75
2022/01/24 19:53:21;;;;;;;;;33.00;30.33;;;;;;;;5198829;27;11705;-75
2022/01/24 19:55:52;;;;;;;;;49.00;39.00;;;;;;;;5193551;27;13321;-74
2022/01/24 19:58:25;;;;;;;;;57.00;46.33;;;;;;;;5194106;27;13674;-75
2022/01/24 20:00:52;;;;;;;;;51.33;45.00;;;;;;;;5177845;27;13859;-74
2022/01/24 20:03:18;;;;;;;;;52.67;45.00;;;;;;;;5197825;27;11507;-73
2022/01/24 20:05:44;;;;;;;;;59.67;46.00;;;;;;;;5197403;27;9243;-75
2022/01/24 20:08:10;;;;;;;;;64.67;46.33;;;;;;;;5197253;27;8909;-75
2022/01/24 20:10:38;;;;;;;;;57.67;46.33;;;;;;;;5191312;27;13246;-74
2022/01/24 20:13:04;;;;;;;;;42.67;35.33;;;;;;;;5177911;27;9516;-73
2022/01/24 20:15:29;;;;;;;;;56.33;45.00;;;;;;;;5197431;27;10866;-75
2022/01/24 20:17:57;;;;;;;;;48.00;41.00;;;;;;;;5197521;27;13309;-77
2022/01/24 20:20:23;;;;;;;;;38.33;37.33;;;;;;;;5178512;27;14404;-72
2022/01/24 20:22:49;;;;;;;;;33.67;31.00;;;;;;;;5197502;27;13237;-71
2022/01/24 20:25:15;;;;;;;;;39.67;33.67;;;;;;;;5194829;27;11497;-71
2022/01/24 20:27:40;;;;;;;;;44.67;35.00;;;;;;;;5193915;27;11412;-72
2022/01/24 20:30:06;;;;;;;;;47.33;42.00;;;;;;;;5196709;27;13882;-75
2022/01/24 20:32:31;;;;;;;;;44.00;39.33;;;;;;;;5196674;27;11618;-74
2022/01/24 20:34:56;;;;;;;;;55.00;43.67;;;;;;;;5196492;27;12238;-74
2022/01/24 20:37:22;;;;;;;;;48.00;42.00;;;;;;;;5177906;27;13725;-75
2022/01/24 20:39:55;;;;;;;;;48.00;42.67;;;;;;;;5185523;27;13596;-76
2022/01/24 20:42:20;;;;;;;;;43.33;41.67;;;;;;;;5181077;27;8790;-77
2022/01/24 20:44:45;;;;;;;;;43.00;37.67;;;;;;;;5183228;27;10529;-75
2022/01/24 20:47:11;;;;;;;;;40.00;39.00;;;;;;;;5183007;27;11764;-76
2022/01/24 20:49:36;;;;;;;;;34.00;32.00;;;;;;;;5164767;27;13853;-75
2022/01/24 20:52:02;;;;;;;;;32.33;31.00;;;;;;;;5183671;27;10516;-75
2022/01/24 20:54:27;;;;;;;;;44.00;39.67;;;;;;;;5184020;27;10390;-77
2022/01/24 20:56:53;;;;;;;;;36.67;34.33;;;;;;;;5163733;27;13645;-75
2022/01/24 20:59:18;;;;;;;;;54.00;44.33;;;;;;;;5184251;27;13236;-76
2022/01/24 21:01:43;;;;;;;;;58.67;49.33;;;;;;;;5184512;27;12190;-75
2022/01/24 21:04:18;;;;;;;;;54.33;44.33;;;;;;;;5184039;27;10534;-75
2022/01/24 21:06:43;;;;;;;;;67.75;52.00;;;;;;;;5184764;27;10520;-75
2022/01/24 21:09:15;;;;;;;;;66.50;52.00;;;;;;;;5184240;27;13479;-76
2022/01/24 21:11:51;;;;;;;;;68.50;54.25;;;;;;;;5183552;27;9209;-76
2022/01/24 21:14:17;;;;;;;;;69.25;53.75;;;;;;;;5183771;27;11936;-75
2022/01/24 21:16:42;;;;;;;;;69.50;56.50;;;;;;;;5183529;27;10369;-77
2022/01/24 21:19:07;;;;;;;;;64.25;52.00;;;;;;;;5173530;27;10340;-76
2022/01/24 21:21:35;;;;;;;;;69.50;56.50;;;;;;;;5172644;27;11724;-77
2022/01/24 21:24:00;;;;;;;;;67.50;51.00;;;;;;;;5162333;27;11482;-73
2022/01/24 21:26:26;;;;;;;;;74.50;58.00;;;;;;;;5161879;27;11380;-73
2022/01/24 21:28:52;;;;;;;;;71.75;57.75;;;;;;;;5142744;27;10669;-72
2022/01/24 21:31:19;;;;;;;;;67.50;54.25;;;;;;;;5161921;27;12234;-74
2022/01/24 21:36:43;;;;;;;;;56.00;46.25;;;;;;;;5126799;27;10446;-74
2022/01/24 21:39:08;;;;;;;;;68.00;50.75;;;;;;;;5143575;27;12552;-73
2022/01/24 21:41:34;;;;;;;;;65.25;50.50;;;;;;;;5162507;27;12252;-74
2022/01/24 21:43:59;;;;;;;;;68.75;54.75;;;;;;;;5162460;27;11393;-74
2022/01/24 21:46:24;;;;;;;;;67.25;52.50;;;;;;;;5162371;27;11517;-73
2022/01/24 21:48:50;;;;;;;;;65.00;52.00;;;;;;;;5160734;27;11388;-74
2022/01/24 21:51:15;;;;;;;;;64.25;54.50;;;;;;;;5160257;27;11436;-74
2022/01/24 21:53:40;;;;;;;;;65.50;53.75;;;;;;;;5161538;27;11378;-73
2022/01/24 21:56:05;;;;;;;;;66.25;52.50;;;;;;;;5161494;27;11928;-74
2022/01/24 21:58:31;;;;;;;;;69.00;52.50;;;;;;;;5160040;27;11516;-75
2022/01/24 22:00:56;;;;;;;;;61.75;50.25;;;;;;;;5161154;27;8822;-74
2022/01/24 22:03:21;;;;;;;;;61.50;51.00;;;;;;;;5161587;27;12576;-74
2022/01/24 22:05:47;;;;;;;;;71.25;51.50;;;;;;;;5161524;27;10401;-74
2022/01/24 22:10:37;;;;;;;;;68.25;52.50;;;;;;;;5161325;27;13256;-75
2022/01/24 22:13:04;;;;;;;;;63.00;51.25;;;;;;;;5161075;27;13255;-74
2022/01/24 22:15:30;;;;;;;;;69.25;57.50;;;;;;;;5161787;27;11450;-74
2022/01/24 22:17:59;;;;;;;;;69.25;52.25;;;;;;;;5161898;27;11549;-74
2022/01/24 22:20:29;;;;;;;;;66.50;55.00;;;;;;;;5162902;27;8952;-74
2022/01/24 22:25:41;;;;;;;;;58.75;47.25;;;;;;;;5161877;27;8776;-74